Time;durP1;ratioP1;P1;durP2;ratioP2;P2;SDS_P1;SDS_P2;PMS_P1;PMS_P2;Temp;Humidity;BMP_temperature;BMP_pressure;BME280_temperature;BME280_humidity;BME280_pressure;Samples;Min_cycle;Max_cycle;Signal;HPM_P1;HPM_P2
2021/08/01 00:01:22;;;;;;;29.48;13.77;;;;;;;17.03;66.20;99116.78;5093393;28;20039;-71
2021/08/01 00:03:49;;;;;;;27.27;13.85;;;;;;;17.03;66.24;99122.13;5093391;28;20553;-71
2021/08/01 00:06:15;;;;;;;28.95;13.82;;;;;;;17.03;65.74;99124.81;5093192;28;20043;-70
2021/08/01 00:08:41;;;;;;;24.85;13.40;;;;;;;17.05;65.70;99125.47;5093165;28;20060;-71
2021/08/01 00:11:07;;;;;;;30.02;13.95;;;;;;;17.06;65.84;99132.44;5093101;28;20089;-70
2021/08/01 00:13:33;;;;;;;32.38;14.50;;;;;;;17.05;66.03;99125.47;5093264;28;20455;-72
2021/08/01 00:16:00;;;;;;;27.30;14.10;;;;;;;17.03;65.96;99125.63;5093332;28;20097;-72
2021/08/01 00:18:26;;;;;;;28.05;14.93;;;;;;;17.01;66.29;99126.81;5092939;28;20575;-72
2021/08/01 00:20:52;;;;;;;30.10;14.68;;;;;;;16.98;66.42;99133.31;5092911;28;20135;-70
2021/08/01 00:23:17;;;;;;;27.98;13.60;;;;;;;16.95;66.31;99136.34;5093115;28;20550;-70
2021/08/01 00:25:43;;;;;;;29.40;14.20;;;;;;;16.92;66.45;99131.34;5093267;28;20051;-70
2021/08/01 00:28:09;;;;;;;31.98;13.52;;;;;;;16.91;66.69;99130.53;5093390;28;20043;-72
2021/08/01 00:30:35;;;;;;;32.20;14.85;;;;;;;16.90;66.92;99133.34;5092671;28;20043;-74
2021/08/01 00:33:01;;;;;;;27.35;14.88;;;;;;;16.84;67.05;99139.38;5093086;28;20450;-70
2021/08/01 00:35:28;;;;;;;34.28;15.40;;;;;;;16.82;67.03;99139.53;5074810;28;20040;-71
2021/08/01 00:37:54;;;;;;;28.85;15.00;;;;;;;16.79;67.13;99137.22;5092912;28;20055;-71
2021/08/01 00:40:20;;;;;;;30.88;14.13;;;;;;;16.77;67.35;99137.41;5092972;28;20048;-72
2021/08/01 00:42:47;;;;;;;31.17;14.80;;;;;;;16.73;67.36;99144.06;5092932;28;20478;-71
2021/08/01 00:45:13;;;;;;;29.58;15.35;;;;;;;16.70;67.75;99154.25;5093181;28;20047;-72
2021/08/01 00:47:40;;;;;;;32.00;16.48;;;;;;;16.65;68.19;99144.94;5092789;28;20039;-72
2021/08/01 00:50:07;;;;;;;;;;;;;;;16.61;68.08;99138.28;5092816;28;20097;-69
2021/08/01 00:52:36;;;;;;;38.33;19.40;;;;;;;16.59;68.12;99142.13;5092500;28;19920;-72
2021/08/01 00:55:08;;;;;;;46.70;21.70;;;;;;;16.55;68.25;99146.97;5092886;28;20480;-71
2021/08/01 00:57:34;;;;;;;33.78;16.88;;;;;;;16.51;68.52;99150.97;5092677;28;20055;-73
2021/08/01 00:59:59;;;;;;;29.65;15.07;;;;;;;16.48;68.65;99146.78;5092572;28;20493;-72
2021/08/01 01:02:35;;;;;;;31.13;14.95;;;;;;;16.47;68.63;99145.16;5092442;28;20047;-73
2021/08/01 01:05:13;;;;;;;41.88;21.65;;;;;;;16.47;68.72;99146.97;5092287;28;20044;-70
2021/08/01 01:07:48;;;;;;;26.33;14.38;;;;;;;16.46;68.73;99147.97;5092275;28;20077;-70
2021/08/01 01:10:31;;;;;;;23.25;13.95;;;;;;;16.46;68.51;99150.63;5092344;28;20131;-71
2021/08/01 01:13:10;;;;;;;27.23;14.60;;;;;;;16.47;68.25;99154.97;5074623;28;20054;-74
2021/08/01 01:15:47;;;;;;;26.25;14.82;;;;;;;16.47;68.39;99154.97;5091933;28;20373;-70
2021/08/01 01:18:18;;;;;;;31.23;14.75;;;;;;;16.46;68.57;99159.50;5092428;28;20050;-71
2021/08/01 01:21:02;;;;;;;25.75;14.90;;;;;;;16.47;68.78;99161.16;5074141;28;20052;-70
2021/08/01 01:23:40;;;;;;;28.10;15.52;;;;;;;16.48;69.07;99164.66;5092027;28;20048;-69
2021/08/01 01:26:34;;;;;;;28.13;15.43;;;;;;;16.44;68.81;99166.81;5075640;28;20066;-71
2021/08/01 01:29:11;;;;;;;30.88;15.75;;;;;;;16.40;68.89;99164.66;5057877;28;20075;-70
2021/08/01 01:31:51;;;;;;;31.73;16.20;;;;;;;16.43;68.95;99180.34;5092179;28;20577;-70
2021/08/01 01:34:28;;;;;;;28.98;15.75;;;;;;;16.42;69.08;99173.34;5073987;28;20068;-73
2021/08/01 01:36:55;;;;;;;30.85;15.45;;;;;;;16.41;68.95;99177.00;5074286;28;20040;-70
2021/08/01 01:39:22;;;;;;;30.88;15.27;;;;;;;16.43;69.10;99173.16;5092031;28;20051;-73
2021/08/01 01:42:18;;;;;;;32.38;15.30;;;;;;;16.43;69.28;99175.00;5009533;28;20154;-71
2021/08/01 01:44:50;;;;;;;30.48;15.68;;;;;;;16.41;69.34;99174.34;5009632;28;20053;-71
2021/08/01 01:47:17;;;;;;;27.48;15.75;;;;;;;16.40;69.86;99170.84;4993185;28;20050;-71
2021/08/01 01:49:44;;;;;;;33.40;16.63;;;;;;;16.42;70.26;99168.00;5009461;28;20073;-71
2021/08/01 01:52:17;;;;;;;32.67;15.98;;;;;;;16.38;70.10;99166.69;5009657;28;20077;-70
2021/08/01 01:54:53;;;;;;;35.47;16.42;;;;;;;16.40;70.24;99168.19;4993288;28;20542;-71
2021/08/01 01:57:21;;;;;;;36.35;18.30;;;;;;;16.43;70.90;99180.34;5009784;28;20514;-71
2021/08/01 01:59:47;;;;;;;35.53;19.17;;;;;;;16.45;71.28;99175.69;5009436;28;20054;-71
2021/08/01 02:02:14;;;;;;;37.78;19.60;;;;;;;16.49;71.46;99177.00;4993471;28;20069;-71
2021/08/01 02:04:42;;;;;;;31.10;16.85;;;;;;;16.46;70.47;99170.16;4992977;28;20418;-70
2021/08/01 02:07:23;;;;;;;44.78;17.60;;;;;;;16.51;70.33;99175.00;5009387;28;20115;-71
2021/08/01 02:10:05;;;;;;;34.72;18.10;;;;;;;16.58;70.82;99165.28;5009420;28;20076;-70
2021/08/01 02:12:36;;;;;;;34.47;17.38;;;;;;;16.61;70.63;99167.63;5009355;28;20426;-70
2021/08/01 02:15:05;;;;;;;38.30;18.65;;;;;;;16.66;70.81;99175.16;4993661;28;20042;-74
2021/08/01 02:18:01;;;;;;;32.28;18.55;;;;;;;16.72;70.43;99168.28;5011410;28;20395;-74
2021/08/01 02:20:31;;;;;;;37.03;17.00;;;;;;;16.75;69.86;99168.78;5073766;28;20076;-70
2021/08/01 02:23:34;;;;;;;32.70;16.40;;;;;;;16.66;69.60;99180.50;5009313;28;20050;-70
2021/08/01 02:26:01;;;;;;;35.10;17.77;;;;;;;16.76;69.71;99185.63;4993239;28;20049;-71
2021/08/01 02:28:28;;;;;;;36.90;17.23;;;;;;;16.78;69.30;99172.94;4992779;28;20100;-71
2021/08/01 02:30:56;;;;;;;38.40;17.77;;;;;;;16.72;68.87;99178.97;5008990;28;20581;-71
2021/08/01 02:33:27;;;;;;;32.88;17.05;;;;;;;16.61;69.32;99178.31;4992796;28;20046;-70
2021/08/01 02:36:01;;;;;;;40.00;18.15;;;;;;;16.68;69.43;99182.97;4993969;28;20057;-70
2021/08/01 02:38:33;;;;;;;41.47;18.02;;;;;;;16.71;69.10;99171.94;5009032;28;20140;-70
2021/08/01 02:41:01;;;;;;;;;;;;;;;16.67;69.05;99182.13;5009710;28;20053;-71
2021/08/01 02:43:30;;;;;;;33.88;17.27;;;;;;;16.69;69.02;99187.31;5009120;28;20015;-71
2021/08/01 02:45:57;;;;;;;35.97;17.25;;;;;;;16.57;69.04;99187.66;5011516;28;20057;-69
2021/08/01 02:48:24;;;;;;;34.55;17.27;;;;;;;16.58;69.42;99186.66;4996385;28;20483;-71
2021/08/01 02:50:55;;;;;;;35.00;17.35;;;;;;;16.64;69.31;99198.50;4996071;28;20064;-72
2021/08/01 02:53:23;;;;;;;35.67;17.23;;;;;;;16.65;69.21;99198.31;5012427;28;20050;-70
2021/08/01 02:55:51;;;;;;;35.65;17.23;;;;;;;16.57;69.61;99200.19;4996225;28;20038;-75
2021/08/01 02:58:19;;;;;;;32.45;18.10;;;;;;;16.50;69.86;99197.38;5027886;28;20044;-73
2021/08/01 03:00:50;;;;;;;39.78;18.15;;;;;;;16.46;69.88;99201.34;5061468;28;20059;-69
2021/08/01 03:03:17;;;;;;;35.28;17.40;;;;;;;16.49;69.92;99199.19;5094780;28;20038;-73
2021/08/01 03:05:44;;;;;;;32.03;18.23;;;;;;;16.56;69.68;99204.69;5059911;28;20134;-72
2021/08/01 03:08:13;;;;;;;39.63;18.20;;;;;;;16.64;69.50;99199.31;5076582;28;20044;-71
2021/08/01 03:10:49;;;;;;;34.13;17.58;;;;;;;16.80;68.98;99206.47;5094375;28;20138;-71
2021/08/01 03:13:17;;;;;;;36.05;18.30;;;;;;;16.98;68.38;99206.31;5094396;28;20669;-79
2021/08/01 03:15:43;;;;;;;35.85;18.63;;;;;;;17.25;67.76;99196.19;5094537;28;20040;-71
2021/08/01 03:18:09;;;;;;;31.13;17.70;;;;;;;17.44;66.93;99194.91;5094404;28;20600;-72
2021/08/01 03:20:35;;;;;;;36.03;17.77;;;;;;;17.65;66.44;99201.50;5094329;28;20055;-70
2021/08/01 03:23:19;;;;;;;33.63;18.80;;;;;;;17.80;65.84;99198.91;5094506;28;20044;-71
2021/08/01 03:26:03;;;;;;;34.08;17.60;;;;;;;17.92;65.44;99207.38;5094470;28;20051;-75
2021/08/01 03:28:32;;;;;;;40.13;18.08;;;;;;;17.94;65.52;99200.84;5094361;28;20036;-72
2021/08/01 03:30:58;;;;;;;36.85;19.27;;;;;;;18.03;65.57;99209.66;5076056;28;20075;-70
2021/08/01 03:33:25;;;;;;;33.47;18.15;;;;;;;18.15;65.29;99214.59;5075680;28;20051;-72
2021/08/01 03:35:51;;;;;;;42.38;23.15;;;;;;;18.18;65.26;99215.06;5093676;28;20032;-71
2021/08/01 03:38:45;;;;;;;39.72;19.15;;;;;;;18.29;64.81;99221.81;5093313;28;20055;-70
2021/08/01 03:41:30;;;;;;;34.13;18.33;;;;;;;18.25;64.92;99207.97;5061817;28;20404;-73
2021/08/01 03:43:56;;;;;;;36.22;18.20;;;;;;;18.36;64.79;99211.25;5075943;28;20118;-73
2021/08/01 03:46:22;;;;;;;32.58;18.15;;;;;;;18.43;64.78;99215.69;5094084;28;20131;-70
2021/08/01 03:48:47;;;;;;;33.90;19.17;;;;;;;18.49;64.39;99207.94;5093964;28;20035;-71
2021/08/01 03:51:13;;;;;;;32.50;18.30;;;;;;;18.59;64.10;99219.22;5093750;28;20093;-70
2021/08/01 03:53:39;;;;;;;59.67;30.25;;;;;;;18.69;64.01;99224.31;5093586;28;20040;-70
2021/08/01 03:56:05;;;;;;;38.83;19.45;;;;;;;18.75;63.82;99223.59;5093269;28;20060;-74
2021/08/01 03:58:31;;;;;;;31.38;17.77;;;;;;;18.79;63.53;99224.91;5093381;28;20130;-71
2021/08/01 04:00:58;;;;;;;30.60;17.92;;;;;;;18.88;63.35;99234.53;5093539;28;20093;-72
2021/08/01 04:03:24;;;;;;;32.80;17.77;;;;;;;19.08;62.79;99224.13;5093475;28;20250;-71
2021/08/01 04:05:50;;;;;;;33.58;18.02;;;;;;;19.17;62.40;99227.53;5093526;28;20131;-72
2021/08/01 04:08:16;;;;;;;32.13;17.42;;;;;;;19.27;61.96;99237.97;5093114;28;20048;-71
2021/08/01 04:10:42;;;;;;;29.30;17.30;;;;;;;19.22;62.00;99235.84;5093189;28;20109;-72
2021/08/01 04:13:08;;;;;;;35.53;17.65;;;;;;;19.41;61.66;99244.34;5093648;28;20055;-74
2021/08/01 04:15:34;;;;;;;32.60;17.00;;;;;;;19.46;60.54;99241.94;5093398;28;20044;-72
2021/08/01 04:18:03;;;;;;;32.00;17.40;;;;;;;19.66;60.52;99235.97;5093502;28;20044;-72
2021/08/01 04:20:30;;;;;;;29.35;16.15;;;;;;;19.83;60.22;99242.00;5093317;28;20397;-72
2021/08/01 04:22:56;;;;;;;32.15;16.25;;;;;;;19.90;59.38;99232.16;5092949;28;20048;-71
2021/08/01 04:25:22;;;;;;;36.38;18.10;;;;;;;20.12;59.17;99229.50;5093372;28;20044;-74
2021/08/01 04:27:48;;;;;;;26.27;15.43;;;;;;;20.59;57.78;99224.53;5092925;28;20121;-73
2021/08/01 04:30:14;;;;;;;32.90;19.65;;;;;;;21.21;56.04;99222.91;5092818;28;20039;-72
2021/08/01 04:32:40;;;;;;;31.98;16.27;;;;;;;21.67;54.35;99226.84;5092869;28;20100;-76
2021/08/01 04:35:07;;;;;;;31.05;15.52;;;;;;;22.10;53.65;99226.53;5075133;28;20040;-72
2021/08/01 04:37:34;;;;;;;;;;;;;;;22.83;52.29;99224.06;5093012;28;20048;-74
2021/08/01 04:40:00;;;;;;;28.65;14.35;;;;;;;23.49;49.46;99219.56;5092864;28;19973;-72
2021/08/01 04:42:26;;;;;;;30.92;14.55;;;;;;;23.69;48.82;99214.91;5092916;28;20465;-75
2021/08/01 04:44:52;;;;;;;29.45;15.70;;;;;;;24.04;47.95;99221.81;5074678;28;20036;-74
2021/08/01 04:47:17;;;;;;;27.17;15.25;;;;;;;24.25;47.86;99215.22;5092816;28;20082;-73
2021/08/01 04:49:43;;;;;;;30.45;15.80;;;;;;;24.61;47.28;99213.69;5092471;28;20104;-73
2021/08/01 04:52:17;;;;;;;34.00;16.33;;;;;;;24.85;45.80;99222.00;5092686;28;20047;-70
2021/08/01 04:54:43;;;;;;;31.38;15.52;;;;;;;25.32;44.95;99216.91;5074203;28;20043;-71
2021/08/01 04:57:09;;;;;;;30.33;15.32;;;;;;;25.72;43.99;99212.91;5092740;28;20535;-71
2021/08/01 04:59:35;;;;;;;29.85;15.70;;;;;;;25.76;43.75;99213.28;5092521;28;20036;-72
2021/08/01 05:02:02;;;;;;;32.50;15.10;;;;;;;25.76;43.41;99216.00;5092572;28;20055;-71
2021/08/01 05:04:28;;;;;;;29.02;15.15;;;;;;;25.73;43.17;99219.13;5092586;28;20044;-71
2021/08/01 05:06:54;;;;;;;24.10;14.40;;;;;;;26.19;42.20;99214.94;5092441;28;20135;-74
2021/08/01 05:09:20;;;;;;;27.77;14.18;;;;;;;26.88;41.62;99217.16;5092432;28;20067;-73
2021/08/01 05:11:46;;;;;;;25.30;14.65;;;;;;;27.91;39.32;99221.16;5092120;28;20043;-74
2021/08/01 05:14:12;;;;;;;26.67;14.52;;;;;;;27.68;38.79;99213.97;5092500;28;20134;-73
2021/08/01 05:16:37;;;;;;;22.40;12.75;;;;;;;27.90;39.17;99214.06;5092653;28;20495;-73
2021/08/01 05:19:03;;;;;;;25.98;13.02;;;;;;;27.88;39.39;99205.34;5092390;28;20055;-72
2021/08/01 05:21:30;;;;;;;28.77;13.30;;;;;;;27.02;40.07;99214.22;5092110;28;20032;-72
2021/08/01 05:23:56;;;;;;;21.65;11.82;;;;;;;27.46;39.53;99203.75;5091989;28;20050;-74
2021/08/01 05:26:21;;;;;;;23.50;12.27;;;;;;;26.81;40.26;99213.75;5092185;28;20393;-73
2021/08/01 05:28:47;;;;;;;22.45;12.32;;;;;;;26.78;40.96;99209.63;5092255;28;20394;-78
2021/08/01 05:31:13;;;;;;;24.83;12.52;;;;;;;28.39;37.75;99200.00;5091681;28;20406;-75
2021/08/01 05:33:39;;;;;;;21.67;11.50;;;;;;;28.39;36.89;99205.44;5091960;28;20032;-72
2021/08/01 05:36:09;;;;;;;20.08;10.20;;;;;;;28.65;36.26;99208.53;5074013;28;20427;-75
2021/08/01 05:38:36;;;;;;;22.73;11.18;;;;;;;28.82;36.21;99209.34;5074615;28;20058;-73
2021/08/01 05:41:02;;;;;;;18.63;10.52;;;;;;;29.58;35.03;99215.25;5073954;28;20523;-74
2021/08/01 05:43:28;;;;;;;18.92;11.43;;;;;;;29.74;34.36;99214.34;5057751;28;20131;-73
2021/08/01 05:45:53;;;;;;;23.00;11.40;;;;;;;30.43;33.82;99210.09;5092579;28;20131;-80
2021/08/01 05:48:20;;;;;;;22.45;10.60;;;;;;;30.46;33.50;99215.03;5092223;28;20059;-75
2021/08/01 05:50:46;;;;;;;24.10;10.67;;;;;;;30.29;33.50;99214.34;5057165;28;20042;-74
2021/08/01 05:53:12;;;;;;;16.97;10.33;;;;;;;32.00;31.08;99224.25;5091750;28;20320;-74
2021/08/01 05:55:37;;;;;;;20.00;9.77;;;;;;;32.12;30.57;99226.75;5091687;28;20075;-71
2021/08/01 05:58:03;;;;;;;23.03;10.60;;;;;;;32.90;30.14;99214.69;5092057;28;20040;-76
2021/08/01 06:00:29;;;;;;;19.33;9.50;;;;;;;33.35;29.55;99226.63;5092222;28;20535;-77
2021/08/01 06:02:55;;;;;;;22.27;9.80;;;;;;;34.14;27.26;99212.16;5091746;28;20093;-76
2021/08/01 06:05:21;;;;;;;17.73;10.00;;;;;;;34.33;27.41;99220.53;5091903;28;20366;-73
2021/08/01 06:07:46;;;;;;;29.13;10.10;;;;;;;34.43;26.86;99216.09;5091931;28;20140;-76
2021/08/01 06:10:12;;;;;;;21.67;9.80;;;;;;;35.90;25.38;99227.63;5092296;28;20062;-78
2021/08/01 06:12:38;;;;;;;23.38;9.20;;;;;;;36.59;24.52;99223.50;5073998;28;20040;-82
2021/08/01 06:15:05;;;;;;;28.10;16.80;;;;;;;36.31;24.24;99234.41;5091909;28;20052;-79
2021/08/01 06:17:31;;;;;;;12.20;8.43;;;;;;;36.00;24.08;99239.59;5092130;28;20127;-75
2021/08/01 06:19:57;;;;;;;19.90;7.95;;;;;;;35.37;25.64;99236.00;5094531;28;20130;-75
2021/08/01 06:22:24;;;;;;;15.40;8.38;;;;;;;34.70;25.52;99231.22;5095964;28;20051;-74
2021/08/01 06:24:50;;;;;;;16.98;8.50;;;;;;;34.64;26.58;99234.03;5077406;28;20503;-75
2021/08/01 06:27:16;;;;;;;21.70;8.07;;;;;;;35.04;25.61;99236.63;5095462;28;20039;-74
2021/08/01 06:29:42;;;;;;;20.60;8.18;;;;;;;34.38;26.74;99230.66;5095342;28;20131;-75
2021/08/01 06:32:08;;;;;;;20.55;8.55;;;;;;;34.90;26.36;99227.47;5077408;28;20535;-77
2021/08/01 06:34:34;;;;;;;15.40;7.43;;;;;;;35.33;25.55;99232.19;5095730;28;20044;-77
2021/08/01 06:37:00;;;;;;;13.20;7.63;;;;;;;35.33;24.91;99223.94;5095244;28;20044;-76
2021/08/01 06:39:25;;;;;;;21.13;7.82;;;;;;;35.31;25.38;99214.03;5095555;28;20043;-78
2021/08/01 06:41:51;;;;;;;15.82;7.88;;;;;;;35.07;25.31;99213.25;5095004;28;20040;-81
2021/08/01 06:44:17;;;;;;;17.85;7.45;;;;;;;35.21;25.22;99218.88;5077123;28;20044;-76
2021/08/01 06:46:43;;;;;;;19.08;6.97;;;;;;;35.44;24.41;99206.22;5076849;28;20079;-75
2021/08/01 06:49:09;;;;;;;13.67;7.37;;;;;;;35.20;23.79;99212.53;5095167;28;20035;-74
2021/08/01 06:51:34;;;;;;;13.40;7.07;;;;;;;35.16;23.57;99211.50;5095179;28;20084;-75
2021/08/01 06:54:00;;;;;;;16.33;7.00;;;;;;;34.79;23.69;99212.97;5095294;28;20365;-76
2021/08/01 06:56:26;;;;;;;24.10;7.22;;;;;;;34.00;24.59;99208.44;5095131;28;20285;-75
2021/08/01 06:58:52;;;;;;;15.30;7.13;;;;;;;33.65;25.14;99213.84;5076847;28;20063;-80
2021/08/01 07:01:18;;;;;;;21.03;7.80;;;;;;;33.97;24.24;99209.84;5094978;28;20097;-76
2021/08/01 07:03:44;;;;;;;15.27;6.90;;;;;;;32.97;24.99;99214.38;5077054;28;20277;-73
2021/08/01 07:06:10;;;;;;;12.70;6.33;;;;;;;33.53;24.78;99199.66;5094890;28;20108;-75
2021/08/01 07:08:38;;;;;;;14.25;6.93;;;;;;;33.64;24.71;99194.94;5094239;28;20433;-77
2021/08/01 07:11:04;;;;;;;15.68;6.75;;;;;;;33.15;24.92;99199.25;5094840;28;20139;-75
2021/08/01 07:13:30;;;;;;;14.93;6.57;;;;;;;32.40;25.76;99196.13;5094398;28;20130;-76
2021/08/01 07:16:03;;;;;;;11.00;7.30;;;;;;;32.05;26.53;99197.75;5094365;28;20036;-76
2021/08/01 07:18:30;;;;;;;12.20;6.15;;;;;;;32.42;26.24;99196.66;5094834;28;20329;-74
2021/08/01 07:20:57;;;;;;;14.63;6.25;;;;;;;32.54;26.25;99195.56;5094413;28;20397;-79
2021/08/01 07:23:23;;;;;;;16.20;6.50;;;;;;;32.28;26.83;99192.84;5094258;28;20044;-76
2021/08/01 07:25:49;;;;;;;11.93;6.82;;;;;;;32.70;26.71;99199.91;5094053;28;20085;-76
2021/08/01 07:28:15;;;;;;;14.18;6.75;;;;;;;32.66;26.36;99193.34;5060278;28;20048;-79
2021/08/01 07:30:44;;;;;;;13.57;6.80;;;;;;;32.60;26.19;99199.94;5075506;28;20048;-75
2021/08/01 07:33:10;;;;;;;11.52;6.28;;;;;;;32.59;27.11;99187.34;5076069;28;20032;-78
2021/08/01 07:35:36;;;;;;;12.90;6.60;;;;;;;32.28;26.54;99190.09;5059152;28;20044;-80
2021/08/01 07:38:04;;;;;;;12.87;7.43;;;;;;;32.11;27.18;99193.06;5076192;28;20468;-80
2021/08/01 07:40:33;;;;;;;13.38;6.55;;;;;;;31.37;28.24;99198.66;5075678;28;20412;-78
2021/08/01 07:43:02;;;;;;;13.73;6.05;;;;;;;30.76;29.34;99190.97;5075412;28;20097;-75
2021/08/01 07:45:32;;;;;;;8.23;6.27;;;;;;;30.02;30.48;99188.75;5075313;28;20044;-74
2021/08/01 07:47:58;;;;;;;13.77;6.82;;;;;;;29.59;31.08;99189.66;5041984;28;20444;-76
2021/08/01 07:50:26;;;;;;;14.25;7.47;;;;;;;29.19;32.28;99197.88;5075233;28;20039;-77
2021/08/01 07:52:52;;;;;;;13.52;6.55;;;;;;;28.70;32.71;99195.88;5093442;28;20138;-76
2021/08/01 07:55:18;;;;;;;11.52;6.70;;;;;;;28.44;33.40;99200.06;5093642;28;20122;-78
2021/08/01 07:57:44;;;;;;;9.98;6.78;;;;;;;28.52;33.25;99193.38;5094328;28;20404;-77
2021/08/01 08:00:14;;;;;;;16.02;7.07;;;;;;;28.38;33.39;99201.06;5075876;28;20127;-80
2021/08/01 08:02:42;;;;;;;11.55;6.63;;;;;;;28.34;33.67;99199.91;5094057;28;20070;-76
2021/08/01 08:05:09;;;;;;;16.73;8.30;;;;;;;27.90;34.38;99203.19;5094071;28;20083;-76
2021/08/01 08:07:37;;;;;;;13.27;7.20;;;;;;;27.63;35.21;99202.97;5093671;28;20058;-77
2021/08/01 08:10:04;;;;;;;13.55;6.95;;;;;;;27.48;35.08;99201.63;5093835;28;20059;-77
2021/08/01 08:12:30;;;;;;;13.48;7.35;;;;;;;27.41;35.40;99207.16;5075620;28;20408;-79
2021/08/01 08:14:55;;;;;;;12.57;7.18;;;;;;;27.22;35.77;99206.50;5093497;28;20036;-75
2021/08/01 08:17:21;;;;;;;12.10;7.00;;;;;;;27.03;36.71;99215.84;5093640;28;20089;-76
2021/08/01 08:19:47;;;;;;;19.02;8.13;;;;;;;27.03;37.01;99216.69;5075517;28;20135;-75
2021/08/01 08:22:13;;;;;;;14.52;7.38;;;;;;;27.22;37.17;99214.63;5093521;28;20393;-76
2021/08/01 08:24:39;;;;;;;20.15;7.75;;;;;;;27.08;37.18;99218.69;5092785;28;20108;-80
2021/08/01 08:27:05;;;;;;;18.67;7.90;;;;;;;27.07;36.91;99227.91;5093135;28;20126;-77
2021/08/01 08:29:31;;;;;;;16.27;7.60;;;;;;;27.07;37.64;99228.72;5093118;28;20043;-78
2021/08/01 08:31:58;;;;;;;17.98;7.60;;;;;;;26.91;37.72;99226.72;5093134;28;20070;-75
2021/08/01 08:34:24;;;;;;;20.73;8.07;;;;;;;26.84;37.65;99231.44;5093205;28;20042;-77
2021/08/01 08:36:52;;;;;;;25.30;11.35;;;;;;;26.77;38.35;99232.38;5092982;28;20047;-76
2021/08/01 08:39:22;;;;;;;14.57;7.88;;;;;;;26.86;37.86;99226.63;5092871;28;20075;-77
2021/08/01 08:41:48;;;;;;;18.70;7.50;;;;;;;26.94;37.76;99232.50;5092597;28;20044;-77
2021/08/01 08:44:15;;;;;;;22.55;8.60;;;;;;;26.89;38.27;99224.25;5093365;28;20095;-78
2021/08/01 08:46:41;;;;;;;20.02;8.00;;;;;;;27.00;38.00;99225.28;5093342;28;20059;-78
2021/08/01 08:49:12;;;;;;;15.37;8.17;;;;;;;27.25;37.70;99226.91;5092809;28;20513;-78
2021/08/01 08:51:42;;;;;;;14.30;7.93;;;;;;;27.17;38.43;99222.69;5092500;28;20097;-74
2021/08/01 08:54:11;;;;;;;14.00;7.65;;;;;;;27.38;37.58;99217.69;5074429;28;20036;-77
2021/08/01 08:56:37;;;;;;;23.63;8.43;;;;;;;27.49;37.81;99214.13;5092946;28;20040;-75
2021/08/01 08:59:04;;;;;;;27.25;14.50;;;;;;;27.33;37.67;99214.84;5074238;28;20040;-76
2021/08/01 09:01:30;;;;;;;20.40;9.90;;;;;;;27.27;38.23;99214.75;5092636;28;20071;-76
2021/08/01 09:03:56;;;;;;;17.45;8.52;;;;;;;27.38;36.92;99212.25;5092759;28;20524;-76
2021/08/01 09:06:22;;;;;;;13.85;8.23;;;;;;;27.41;37.22;99206.34;5092498;28;20092;-80
2021/08/01 09:08:48;;;;;;;17.98;7.80;;;;;;;27.42;37.20;99206.09;5071107;28;20386;-79
2021/08/01 09:11:13;;;;;;;18.33;7.68;;;;;;;27.56;36.81;99203.94;5072249;28;20040;-76
2021/08/01 09:13:44;;;;;;;20.63;8.10;;;;;;;27.48;37.05;99200.78;5072586;28;20495;-76
2021/08/01 09:16:11;;;;;;;20.45;9.10;;;;;;;27.19;37.82;99204.28;5072290;28;20048;-77
2021/08/01 09:18:36;;;;;;;19.33;9.60;;;;;;;26.90;38.93;99201.47;5072294;28;20097;-76
2021/08/01 09:21:02;;;;;;;16.83;9.20;;;;;;;26.70;39.02;99206.41;5072550;28;20135;-75
2021/08/01 09:23:28;;;;;;;19.75;9.45;;;;;;;26.58;39.29;99199.09;5071164;28;20044;-78
2021/08/01 09:25:59;;;;;;;19.23;10.32;;;;;;;26.64;39.66;99191.88;5072010;28;20047;-76
2021/08/01 09:28:26;;;;;;;16.52;8.82;;;;;;;26.56;39.03;99195.78;5072241;28;20045;-77
2021/08/01 09:30:59;;;;;;;16.63;8.48;;;;;;;26.35;39.44;99209.94;5072227;28;20051;-78
2021/08/01 09:33:30;;;;;;;16.90;9.05;;;;;;;26.18;40.04;99199.75;5072378;28;20659;-76
2021/08/01 09:36:15;;;;;;;25.08;12.52;;;;;;;26.23;39.95;99208.03;5072309;28;20041;-79
2021/08/01 09:38:54;;;;;;;13.32;8.35;;;;;;;26.15;39.75;99230.03;5071204;28;20458;-76
2021/08/01 09:41:33;;;;;;;21.23;10.05;;;;;;;25.91;40.69;99231.81;5072033;28;20052;-78
2021/08/01 09:44:01;;;;;;;15.27;8.85;;;;;;;25.82;41.04;99229.44;5072304;28;20052;-76
2021/08/01 09:46:44;;;;;;;19.45;9.15;;;;;;;25.81;41.48;99243.22;5071397;28;20051;-77
2021/08/01 09:49:19;;;;;;;16.20;8.70;;;;;;;25.81;41.20;99251.34;5071925;28;20079;-78
2021/08/01 09:51:56;;;;;;;14.52;9.00;;;;;;;25.78;41.69;99243.66;5072289;28;20044;-77
2021/08/01 09:54:23;;;;;;;;;;;;;;;25.59;42.05;99256.41;5074272;28;20048;-77
2021/08/01 09:56:59;;;;;;;18.80;9.20;;;;;;;25.52;42.65;99251.06;5075821;28;19916;-76
2021/08/01 09:59:29;;;;;;;15.60;8.85;;;;;;;25.49;42.79;99256.94;5076181;28;20131;-77
2021/08/01 10:02:03;;;;;;;17.75;9.43;;;;;;;25.46;43.12;99257.38;5075968;28;20140;-75
2021/08/01 10:04:30;;;;;;;16.88;10.05;;;;;;;25.35;43.85;99262.47;5076023;28;20048;-75
2021/08/01 10:07:03;;;;;;;18.38;9.75;;;;;;;25.34;44.14;99265.41;5075948;28;20082;-75
2021/08/01 10:09:31;;;;;;;20.45;10.02;;;;;;;25.38;44.03;99265.81;5094565;28;20051;-74
2021/08/01 10:11:57;;;;;;;19.17;9.80;;;;;;;25.44;44.76;99270.34;5077298;28;20127;-74
2021/08/01 10:14:23;;;;;;;26.52;11.18;;;;;;;25.56;44.62;99273.09;5077910;28;20048;-74
2021/08/01 10:16:50;;;;;;;21.63;11.43;;;;;;;25.56;44.20;99268.53;5095516;28;20076;-74
2021/08/01 10:19:19;;;;;;;22.17;10.80;;;;;;;25.64;44.18;99273.63;5095382;28;20050;-75
2021/08/01 10:21:45;;;;;;;23.05;10.52;;;;;;;25.60;44.70;99268.91;5078204;28;20289;-75
2021/08/01 10:24:14;;;;;;;20.00;10.37;;;;;;;25.54;44.48;99256.28;5077351;28;20043;-75
2021/08/01 10:26:42;;;;;;;19.02;9.98;;;;;;;25.55;45.04;99266.06;5095413;28;20046;-74
2021/08/01 10:29:10;;;;;;;17.63;10.43;;;;;;;25.44;45.76;99259.50;5077317;28;20052;-76
2021/08/01 10:31:40;;;;;;;21.92;10.27;;;;;;;25.47;46.04;99254.47;5077155;28;20039;-75
2021/08/01 10:34:35;;;;;;;17.52;9.90;;;;;;;25.46;45.99;99246.53;5077456;28;20035;-75
2021/08/01 10:37:08;;;;;;;24.92;14.48;;;;;;;25.54;46.05;99253.56;5073327;28;20390;-81
2021/08/01 10:39:35;;;;;;;26.67;13.95;;;;;;;25.72;45.80;99250.84;5095342;28;20040;-76
2021/08/01 10:42:07;;;;;;;18.88;10.18;;;;;;;25.77;46.40;99240.13;5095072;28;20048;-75
2021/08/01 10:44:35;;;;;;;29.88;15.38;;;;;;;25.83;46.25;99231.09;5095655;28;20385;-74
2021/08/01 10:47:05;;;;;;;23.55;12.48;;;;;;;25.87;46.46;99203.53;5077058;28;20044;-74
2021/08/01 10:49:31;;;;;;;18.45;10.77;;;;;;;25.74;46.43;99205.34;5077428;28;20044;-77
2021/08/01 10:51:57;;;;;;;16.90;10.63;;;;;;;25.76;46.16;99210.56;5094971;28;20101;-79
2021/08/01 10:54:24;;;;;;;21.02;10.23;;;;;;;25.72;46.48;99206.66;5094926;28;20040;-76
2021/08/01 10:57:17;;;;;;;22.33;11.50;;;;;;;25.86;46.55;99185.59;5095107;28;20047;-82
2021/08/01 10:59:43;;;;;;;20.55;11.55;;;;;;;26.02;46.37;99181.41;5095126;28;20094;-77
2021/08/01 11:02:19;;;;;;;17.08;10.40;;;;;;;26.15;46.47;99183.94;5077406;28;20062;-73
2021/08/01 11:04:47;;;;;;;20.85;10.38;;;;;;;25.97;46.51;99161.25;5094253;28;20416;-79
2021/08/01 11:07:28;;;;;;;19.15;10.68;;;;;;;25.74;47.48;99147.66;5076109;28;20044;-75
2021/08/01 11:10:13;;;;;;;16.85;9.73;;;;;;;25.33;48.68;99150.91;5094701;28;20044;-75
2021/08/01 11:12:42;;;;;;;13.52;9.93;;;;;;;25.10;49.98;99151.59;5094694;28;20523;-81
2021/08/01 11:15:12;;;;;;;17.15;11.45;;;;;;;24.91;50.28;99148.06;5094556;28;20047;-80
2021/08/01 11:17:42;;;;;;;21.30;12.05;;;;;;;24.78;51.13;99153.63;5076049;28;20048;-77
2021/08/01 11:20:23;;;;;;;18.15;11.32;;;;;;;24.66;52.34;99154.38;5094600;28;20503;-75
2021/08/01 11:22:51;;;;;;;20.27;11.40;;;;;;;24.47;52.56;99147.25;5094620;28;20048;-78
2021/08/01 11:25:25;;;;;;;81.93;39.55;;;;;;;24.38;52.18;99141.28;5094614;28;20096;-81
2021/08/01 11:28:21;;;;;;;27.45;15.15;;;;;;;24.28;52.22;99149.09;5094287;28;20040;-77
2021/08/01 11:30:53;;;;;;;20.52;12.88;;;;;;;24.21;52.51;99154.53;5068745;28;20040;-76